sensor_id;sensor_type;location;lat;lon;timestamp;P1;durP1;ratioP1;P2;durP2;ratioP2
24567;SDS011;12731;52.182;8.716;2022-12-29T00:02:20;2.45;;;1.30;;
24567;SDS011;12731;52.182;8.716;2022-12-29T00:04:46;1.65;;;1.52;;
24567;SDS011;12731;52.182;8.716;2022-12-29T00:07:15;1.67;;;1.50;;
24567;SDS011;12731;52.182;8.716;2022-12-29T00:09:43;1.75;;;1.35;;
24567;SDS011;12731;52.182;8.716;2022-12-29T00:12:09;1.42;;;1.33;;
24567;SDS011;12731;52.182;8.716;2022-12-29T00:14:36;3.20;;;1.58;;
24567;SDS011;12731;52.182;8.716;2022-12-29T00:17:21;1.88;;;1.40;;
24567;SDS011;12731;52.182;8.716;2022-12-29T00:19:47;1.35;;;1.23;;
24567;SDS011;12731;52.182;8.716;2022-12-29T00:22:32;1.67;;;1.23;;
24567;SDS011;12731;52.182;8.716;2022-12-29T00:25:18;1.60;;;1.50;;
24567;SDS011;12731;52.182;8.716;2022-12-29T00:28:03;2.67;;;1.38;;
24567;SDS011;12731;52.182;8.716;2022-12-29T00:30:49;1.73;;;1.33;;
24567;SDS011;12731;52.182;8.716;2022-12-29T00:33:34;1.63;;;1.30;;
24567;SDS011;12731;52.182;8.716;2022-12-29T00:36:26;1.60;;;1.50;;
24567;SDS011;12731;52.182;8.716;2022-12-29T00:39:05;1.48;;;1.33;;
24567;SDS011;12731;52.182;8.716;2022-12-29T00:41:53;2.90;;;1.48;;
24567;SDS011;12731;52.182;8.716;2022-12-29T00:44:39;1.73;;;1.27;;
24567;SDS011;12731;52.182;8.716;2022-12-29T00:47:05;2.63;;;1.30;;
24567;SDS011;12731;52.182;8.716;2022-12-29T00:49:32;2.55;;;1.40;;
24567;SDS011;12731;52.182;8.716;2022-12-29T00:52:03;1.77;;;1.20;;
24567;SDS011;12731;52.182;8.716;2022-12-29T00:54:34;1.83;;;1.40;;
24567;SDS011;12731;52.182;8.716;2022-12-29T00:57:03;2.45;;;1.15;;
24567;SDS011;12731;52.182;8.716;2022-12-29T00:59:30;1.45;;;1.23;;
24567;SDS011;12731;52.182;8.716;2022-12-29T01:01:57;1.98;;;1.20;;
24567;SDS011;12731;52.182;8.716;2022-12-29T01:04:24;1.60;;;1.40;;
24567;SDS011;12731;52.182;8.716;2022-12-29T01:06:51;1.60;;;1.17;;
24567;SDS011;12731;52.182;8.716;2022-12-29T01:09:18;2.42;;;1.52;;
24567;SDS011;12731;52.182;8.716;2022-12-29T01:12:04;3.10;;;1.40;;
24567;SDS011;12731;52.182;8.716;2022-12-29T01:14:32;1.52;;;1.40;;
24567;SDS011;12731;52.182;8.716;2022-12-29T01:16:59;1.30;;;1.20;;
24567;SDS011;12731;52.182;8.716;2022-12-29T01:19:25;1.88;;;1.27;;
24567;SDS011;12731;52.182;8.716;2022-12-29T01:21:52;2.13;;;1.10;;
24567;SDS011;12731;52.182;8.716;2022-12-29T01:24:19;1.73;;;1.38;;
24567;SDS011;12731;52.182;8.716;2022-12-29T01:26:46;1.98;;;0.95;;
24567;SDS011;12731;52.182;8.716;2022-12-29T01:29:13;1.70;;;1.02;;
24567;SDS011;12731;52.182;8.716;2022-12-29T01:31:39;1.10;;;1.08;;
24567;SDS011;12731;52.182;8.716;2022-12-29T01:34:06;1.15;;;1.05;;
24567;SDS011;12731;52.182;8.716;2022-12-29T01:36:33;2.40;;;1.05;;
24567;SDS011;12731;52.182;8.716;2022-12-29T01:38:59;1.58;;;1.08;;
24567;SDS011;12731;52.182;8.716;2022-12-29T01:41:26;2.50;;;0.95;;
24567;SDS011;12731;52.182;8.716;2022-12-29T01:43:53;1.15;;;1.00;;
24567;SDS011;12731;52.182;8.716;2022-12-29T01:46:26;1.30;;;1.15;;
24567;SDS011;12731;52.182;8.716;2022-12-29T01:49:17;0.85;;;0.85;;
24567;SDS011;12731;52.182;8.716;2022-12-29T01:51:50;1.20;;;1.10;;
24567;SDS011;12731;52.182;8.716;2022-12-29T01:54:20;1.25;;;0.98;;
24567;SDS011;12731;52.182;8.716;2022-12-29T01:57:03;0.93;;;0.88;;
24567;SDS011;12731;52.182;8.716;2022-12-29T01:59:38;1.80;;;0.90;;
24567;SDS011;12731;52.182;8.716;2022-12-29T02:02:24;1.50;;;1.02;;
24567;SDS011;12731;52.182;8.716;2022-12-29T02:04:51;1.05;;;0.95;;
24567;SDS011;12731;52.182;8.716;2022-12-29T02:07:19;0.80;;;0.73;;
24567;SDS011;12731;52.182;8.716;2022-12-29T02:09:50;0.93;;;0.93;;
24567;SDS011;12731;52.182;8.716;2022-12-29T02:12:18;1.25;;;0.98;;
24567;SDS011;12731;52.182;8.716;2022-12-29T02:14:46;0.70;;;0.70;;
24567;SDS011;12731;52.182;8.716;2022-12-29T02:25:41;1.00;;;0.90;;
24567;SDS011;12731;52.182;8.716;2022-12-29T02:28:16;0.70;;;0.70;;
24567;SDS011;12731;52.182;8.716;2022-12-29T02:36:12;0.85;;;0.70;;
24567;SDS011;12731;52.182;8.716;2022-12-29T02:42:31;1.33;;;0.90;;
24567;SDS011;12731;52.182;8.716;2022-12-29T02:45:12;0.80;;;0.80;;
24567;SDS011;12731;52.182;8.716;2022-12-29T02:50:20;0.73;;;0.70;;
24567;SDS011;12731;52.182;8.716;2022-12-29T02:52:50;0.80;;;0.70;;
24567;SDS011;12731;52.182;8.716;2022-12-29T02:55:21;1.00;;;0.63;;
24567;SDS011;12731;52.182;8.716;2022-12-29T02:57:47;1.45;;;0.80;;
24567;SDS011;12731;52.182;8.716;2022-12-29T03:00:14;1.48;;;0.73;;
24567;SDS011;12731;52.182;8.716;2022-12-29T03:11:06;0.82;;;0.60;;
24567;SDS011;12731;52.182;8.716;2022-12-29T03:13:54;0.70;;;0.57;;
24567;SDS011;12731;52.182;8.716;2022-12-29T03:16:45;1.63;;;0.77;;
24567;SDS011;12731;52.182;8.716;2022-12-29T03:19:18;0.82;;;0.52;;
24567;SDS011;12731;52.182;8.716;2022-12-29T03:21:49;0.57;;;0.57;;
24567;SDS011;12731;52.182;8.716;2022-12-29T03:24:39;0.60;;;0.60;;
24567;SDS011;12731;52.182;8.716;2022-12-29T03:27:09;0.60;;;0.43;;
24567;SDS011;12731;52.182;8.716;2022-12-29T03:29:39;0.60;;;0.60;;
24567;SDS011;12731;52.182;8.716;2022-12-29T03:32:08;0.60;;;0.50;;
24567;SDS011;12731;52.182;8.716;2022-12-29T03:34:35;0.50;;;0.50;;
24567;SDS011;12731;52.182;8.716;2022-12-29T03:37:04;0.50;;;0.40;;
24567;SDS011;12731;52.182;8.716;2022-12-29T03:39:34;0.57;;;0.50;;
24567;SDS011;12731;52.182;8.716;2022-12-29T03:42:01;1.38;;;0.40;;
24567;SDS011;12731;52.182;8.716;2022-12-29T03:44:33;0.50;;;0.50;;
24567;SDS011;12731;52.182;8.716;2022-12-29T03:47:05;0.65;;;0.50;;
24567;SDS011;12731;52.182;8.716;2022-12-29T03:49:32;0.35;;;0.35;;
24567;SDS011;12731;52.182;8.716;2022-12-29T03:51:59;1.15;;;0.50;;
24567;SDS011;12731;52.182;8.716;2022-12-29T03:54:26;1.00;;;0.50;;
24567;SDS011;12731;52.182;8.716;2022-12-29T03:56:52;0.82;;;0.50;;
24567;SDS011;12731;52.182;8.716;2022-12-29T03:59:18;0.65;;;0.60;;
24567;SDS011;12731;52.182;8.716;2022-12-29T04:01:45;0.60;;;0.60;;
24567;SDS011;12731;52.182;8.716;2022-12-29T04:04:12;1.00;;;0.50;;
24567;SDS011;12731;52.182;8.716;2022-12-29T04:06:39;1.40;;;0.60;;
24567;SDS011;12731;52.182;8.716;2022-12-29T04:09:06;1.33;;;0.60;;
24567;SDS011;12731;52.182;8.716;2022-12-29T04:11:32;0.95;;;0.50;;
24567;SDS011;12731;52.182;8.716;2022-12-29T04:13:59;1.17;;;0.40;;
24567;SDS011;12731;52.182;8.716;2022-12-29T04:16:26;2.10;;;0.50;;
24567;SDS011;12731;52.182;8.716;2022-12-29T04:18:52;0.80;;;0.43;;
24567;SDS011;12731;52.182;8.716;2022-12-29T04:21:19;0.80;;;0.52;;
24567;SDS011;12731;52.182;8.716;2022-12-29T04:23:45;0.60;;;0.43;;
24567;SDS011;12731;52.182;8.716;2022-12-29T04:26:12;0.60;;;0.57;;
24567;SDS011;12731;52.182;8.716;2022-12-29T04:28:39;0.85;;;0.50;;
24567;SDS011;12731;52.182;8.716;2022-12-29T04:31:06;0.60;;;0.60;;
24567;SDS011;12731;52.182;8.716;2022-12-29T04:33:33;1.33;;;0.60;;
24567;SDS011;12731;52.182;8.716;2022-12-29T04:35:59;2.65;;;0.70;;
24567;SDS011;12731;52.182;8.716;2022-12-29T04:38:26;0.50;;;0.50;;
24567;SDS011;12731;52.182;8.716;2022-12-29T04:40:52;0.68;;;0.50;;
24567;SDS011;12731;52.182;8.716;2022-12-29T04:43:19;0.85;;;0.63;;
24567;SDS011;12731;52.182;8.716;2022-12-29T04:45:46;0.50;;;0.50;;
24567;SDS011;12731;52.182;8.716;2022-12-29T04:48:13;0.80;;;0.60;;
24567;SDS011;12731;52.182;8.716;2022-12-29T04:50:40;1.10;;;0.50;;
24567;SDS011;12731;52.182;8.716;2022-12-29T04:53:07;2.08;;;0.75;;
24567;SDS011;12731;52.182;8.716;2022-12-29T04:55:33;1.70;;;0.80;;
24567;SDS011;12731;52.182;8.716;2022-12-29T04:58:00;1.27;;;0.70;;
24567;SDS011;12731;52.182;8.716;2022-12-29T05:00:27;5.00;;;0.80;;
24567;SDS011;12731;52.182;8.716;2022-12-29T05:02:53;2.38;;;0.68;;
24567;SDS011;12731;52.182;8.716;2022-12-29T05:05:20;2.00;;;0.75;;
24567;SDS011;12731;52.182;8.716;2022-12-29T05:07:47;1.73;;;0.95;;
24567;SDS011;12731;52.182;8.716;2022-12-29T05:10:13;1.45;;;0.70;;
24567;SDS011;12731;52.182;8.716;2022-12-29T05:12:40;2.40;;;0.95;;
24567;SDS011;12731;52.182;8.716;2022-12-29T05:15:07;3.40;;;1.00;;
24567;SDS011;12731;52.182;8.716;2022-12-29T05:17:34;2.10;;;0.93;;
24567;SDS011;12731;52.182;8.716;2022-12-29T05:20:00;2.33;;;1.20;;
24567;SDS011;12731;52.182;8.716;2022-12-29T05:22:27;3.00;;;1.05;;
24567;SDS011;12731;52.182;8.716;2022-12-29T05:24:53;1.38;;;0.90;;
24567;SDS011;12731;52.182;8.716;2022-12-29T05:27:20;1.63;;;0.80;;
24567;SDS011;12731;52.182;8.716;2022-12-29T05:29:46;1.30;;;0.88;;
24567;SDS011;12731;52.182;8.716;2022-12-29T05:32:13;2.83;;;1.10;;
24567;SDS011;12731;52.182;8.716;2022-12-29T05:34:39;2.30;;;0.95;;
24567;SDS011;12731;52.182;8.716;2022-12-29T05:37:06;1.90;;;0.85;;
24567;SDS011;12731;52.182;8.716;2022-12-29T05:39:32;0.93;;;0.75;;
24567;SDS011;12731;52.182;8.716;2022-12-29T05:41:59;1.13;;;0.90;;
24567;SDS011;12731;52.182;8.716;2022-12-29T05:44:26;1.77;;;0.95;;
24567;SDS011;12731;52.182;8.716;2022-12-29T05:46:52;0.73;;;0.70;;
24567;SDS011;12731;52.182;8.716;2022-12-29T05:49:19;1.38;;;0.70;;
24567;SDS011;12731;52.182;8.716;2022-12-29T05:51:45;1.00;;;0.70;;
24567;SDS011;12731;52.182;8.716;2022-12-29T05:54:11;0.80;;;0.70;;
24567;SDS011;12731;52.182;8.716;2022-12-29T05:56:38;1.05;;;0.80;;
24567;SDS011;12731;52.182;8.716;2022-12-29T05:59:04;3.72;;;0.80;;
24567;SDS011;12731;52.182;8.716;2022-12-29T06:01:31;1.00;;;0.70;;
24567;SDS011;12731;52.182;8.716;2022-12-29T06:03:58;0.80;;;0.60;;
24567;SDS011;12731;52.182;8.716;2022-12-29T06:06:24;1.38;;;0.80;;
24567;SDS011;12731;52.182;8.716;2022-12-29T06:08:51;1.95;;;0.60;;
24567;SDS011;12731;52.182;8.716;2022-12-29T06:11:18;1.08;;;0.70;;
24567;SDS011;12731;52.182;8.716;2022-12-29T06:13:44;0.90;;;0.52;;
24567;SDS011;12731;52.182;8.716;2022-12-29T06:16:11;0.85;;;0.70;;
24567;SDS011;12731;52.182;8.716;2022-12-29T06:18:37;1.00;;;0.65;;
24567;SDS011;12731;52.182;8.716;2022-12-29T06:21:04;1.25;;;0.63;;
24567;SDS011;12731;52.182;8.716;2022-12-29T06:23:31;1.33;;;0.70;;
24567;SDS011;12731;52.182;8.716;2022-12-29T06:25:57;3.00;;;0.70;;
24567;SDS011;12731;52.182;8.716;2022-12-29T06:28:24;3.10;;;0.90;;
24567;SDS011;12731;52.182;8.716;2022-12-29T06:30:50;2.47;;;0.60;;
24567;SDS011;12731;52.182;8.716;2022-12-29T06:33:16;1.85;;;0.50;;
24567;SDS011;12731;52.182;8.716;2022-12-29T06:35:43;1.80;;;0.50;;
24567;SDS011;12731;52.182;8.716;2022-12-29T06:38:11;2.25;;;0.50;;
24567;SDS011;12731;52.182;8.716;2022-12-29T06:40:38;1.13;;;0.40;;
24567;SDS011;12731;52.182;8.716;2022-12-29T06:43:05;2.05;;;0.70;;
24567;SDS011;12731;52.182;8.716;2022-12-29T06:45:32;1.67;;;0.60;;
24567;SDS011;12731;52.182;8.716;2022-12-29T06:47:59;2.08;;;0.50;;
24567;SDS011;12731;52.182;8.716;2022-12-29T06:50:25;2.72;;;0.60;;
24567;SDS011;12731;52.182;8.716;2022-12-29T06:52:51;1.20;;;0.40;;
24567;SDS011;12731;52.182;8.716;2022-12-29T06:55:18;1.55;;;0.50;;
24567;SDS011;12731;52.182;8.716;2022-12-29T06:57:44;0.63;;;0.40;;
24567;SDS011;12731;52.182;8.716;2022-12-29T07:00:11;0.88;;;0.60;;
24567;SDS011;12731;52.182;8.716;2022-12-29T07:02:40;1.35;;;0.60;;
24567;SDS011;12731;52.182;8.716;2022-12-29T07:05:07;1.65;;;0.60;;
24567;SDS011;12731;52.182;8.716;2022-12-29T07:07:35;2.28;;;0.73;;
24567;SDS011;12731;52.182;8.716;2022-12-29T07:10:01;2.30;;;0.80;;
24567;SDS011;12731;52.182;8.716;2022-12-29T07:12:28;1.95;;;1.00;;
24567;SDS011;12731;52.182;8.716;2022-12-29T07:14:55;3.50;;;1.02;;
24567;SDS011;12731;52.182;8.716;2022-12-29T07:17:21;2.40;;;1.25;;
24567;SDS011;12731;52.182;8.716;2022-12-29T07:19:48;3.55;;;1.23;;
24567;SDS011;12731;52.182;8.716;2022-12-29T07:22:14;3.10;;;1.30;;
24567;SDS011;12731;52.182;8.716;2022-12-29T07:24:40;1.75;;;1.00;;
24567;SDS011;12731;52.182;8.716;2022-12-29T07:27:07;3.22;;;1.00;;
24567;SDS011;12731;52.182;8.716;2022-12-29T07:29:34;2.63;;;1.08;;
24567;SDS011;12731;52.182;8.716;2022-12-29T07:32:03;3.22;;;1.00;;
24567;SDS011;12731;52.182;8.716;2022-12-29T07:34:30;3.20;;;1.40;;
24567;SDS011;12731;52.182;8.716;2022-12-29T07:36:56;3.13;;;1.30;;
24567;SDS011;12731;52.182;8.716;2022-12-29T07:39:23;2.47;;;1.30;;
24567;SDS011;12731;52.182;8.716;2022-12-29T07:41:49;4.03;;;1.05;;
24567;SDS011;12731;52.182;8.716;2022-12-29T07:44:16;4.10;;;1.00;;
24567;SDS011;12731;52.182;8.716;2022-12-29T07:46:42;3.75;;;1.00;;
24567;SDS011;12731;52.182;8.716;2022-12-29T07:49:22;5.60;;;1.20;;
24567;SDS011;12731;52.182;8.716;2022-12-29T07:51:49;7.10;;;1.30;;
24567;SDS011;12731;52.182;8.716;2022-12-29T07:54:15;6.10;;;1.38;;
24567;SDS011;12731;52.182;8.716;2022-12-29T07:56:44;5.07;;;1.52;;
24567;SDS011;12731;52.182;8.716;2022-12-29T07:59:11;4.68;;;1.30;;
24567;SDS011;12731;52.182;8.716;2022-12-29T08:01:38;5.78;;;1.30;;
24567;SDS011;12731;52.182;8.716;2022-12-29T08:04:05;4.82;;;1.40;;
24567;SDS011;12731;52.182;8.716;2022-12-29T08:06:31;4.65;;;1.70;;
24567;SDS011;12731;52.182;8.716;2022-12-29T08:08:58;6.38;;;1.75;;
24567;SDS011;12731;52.182;8.716;2022-12-29T08:11:37;6.55;;;1.40;;
24567;SDS011;12731;52.182;8.716;2022-12-29T08:14:04;5.30;;;1.60;;
24567;SDS011;12731;52.182;8.716;2022-12-29T08:16:31;3.40;;;1.02;;
24567;SDS011;12731;52.182;8.716;2022-12-29T08:18:58;2.83;;;1.20;;
24567;SDS011;12731;52.182;8.716;2022-12-29T08:21:26;4.53;;;1.40;;
24567;SDS011;12731;52.182;8.716;2022-12-29T08:23:53;5.78;;;1.23;;
24567;SDS011;12731;52.182;8.716;2022-12-29T08:26:20;3.70;;;1.30;;
24567;SDS011;12731;52.182;8.716;2022-12-29T08:28:46;7.68;;;1.40;;
24567;SDS011;12731;52.182;8.716;2022-12-29T08:31:13;6.82;;;1.60;;
24567;SDS011;12731;52.182;8.716;2022-12-29T08:33:39;3.42;;;1.02;;
24567;SDS011;12731;52.182;8.716;2022-12-29T08:36:06;5.07;;;1.10;;
24567;SDS011;12731;52.182;8.716;2022-12-29T08:38:33;4.38;;;1.58;;
24567;SDS011;12731;52.182;8.716;2022-12-29T08:40:59;5.30;;;1.33;;
24567;SDS011;12731;52.182;8.716;2022-12-29T08:43:27;5.88;;;1.40;;
24567;SDS011;12731;52.182;8.716;2022-12-29T08:45:54;6.88;;;1.33;;
24567;SDS011;12731;52.182;8.716;2022-12-29T08:48:20;5.60;;;1.20;;
24567;SDS011;12731;52.182;8.716;2022-12-29T08:50:48;3.90;;;1.20;;
24567;SDS011;12731;52.182;8.716;2022-12-29T08:53:16;5.47;;;1.33;;
24567;SDS011;12731;52.182;8.716;2022-12-29T08:55:47;2.58;;;1.02;;
24567;SDS011;12731;52.182;8.716;2022-12-29T08:58:27;3.42;;;1.10;;
24567;SDS011;12731;52.182;8.716;2022-12-29T09:00:54;3.63;;;1.35;;
24567;SDS011;12731;52.182;8.716;2022-12-29T09:03:22;6.07;;;1.48;;
24567;SDS011;12731;52.182;8.716;2022-12-29T09:06:09;3.72;;;1.27;;
24567;SDS011;12731;52.182;8.716;2022-12-29T09:08:36;4.40;;;1.30;;
24567;SDS011;12731;52.182;8.716;2022-12-29T09:11:12;5.25;;;1.08;;
24567;SDS011;12731;52.182;8.716;2022-12-29T09:13:41;4.78;;;1.45;;
24567;SDS011;12731;52.182;8.716;2022-12-29T09:16:08;4.88;;;1.20;;
24567;SDS011;12731;52.182;8.716;2022-12-29T09:18:34;7.55;;;1.58;;
24567;SDS011;12731;52.182;8.716;2022-12-29T09:21:02;2.97;;;1.10;;
24567;SDS011;12731;52.182;8.716;2022-12-29T09:23:29;2.75;;;0.88;;
24567;SDS011;12731;52.182;8.716;2022-12-29T09:25:56;4.15;;;1.10;;
24567;SDS011;12731;52.182;8.716;2022-12-29T09:28:23;6.18;;;1.20;;
24567;SDS011;12731;52.182;8.716;2022-12-29T09:30:50;5.03;;;1.35;;
24567;SDS011;12731;52.182;8.716;2022-12-29T09:33:17;2.60;;;1.05;;
24567;SDS011;12731;52.182;8.716;2022-12-29T09:35:44;5.40;;;1.50;;
24567;SDS011;12731;52.182;8.716;2022-12-29T09:38:11;5.15;;;1.02;;
24567;SDS011;12731;52.182;8.716;2022-12-29T09:40:38;3.08;;;0.95;;
24567;SDS011;12731;52.182;8.716;2022-12-29T09:45:54;4.18;;;1.50;;
24567;SDS011;12731;52.182;8.716;2022-12-29T09:48:27;3.78;;;1.23;;
24567;SDS011;12731;52.182;8.716;2022-12-29T09:50:58;6.03;;;1.50;;
24567;SDS011;12731;52.182;8.716;2022-12-29T09:53:36;4.40;;;1.55;;
24567;SDS011;12731;52.182;8.716;2022-12-29T09:56:04;6.13;;;1.73;;
24567;SDS011;12731;52.182;8.716;2022-12-29T09:58:36;4.00;;;1.23;;
24567;SDS011;12731;52.182;8.716;2022-12-29T10:01:06;3.20;;;1.35;;
24567;SDS011;12731;52.182;8.716;2022-12-29T10:03:44;3.75;;;1.20;;
24567;SDS011;12731;52.182;8.716;2022-12-29T10:06:23;3.42;;;1.17;;
24567;SDS011;12731;52.182;8.716;2022-12-29T10:09:02;5.50;;;1.95;;
24567;SDS011;12731;52.182;8.716;2022-12-29T10:14:18;4.28;;;1.40;;
24567;SDS011;12731;52.182;8.716;2022-12-29T10:17:05;5.00;;;1.48;;
24567;SDS011;12731;52.182;8.716;2022-12-29T10:20:15;5.85;;;1.50;;
24567;SDS011;12731;52.182;8.716;2022-12-29T10:25:22;5.47;;;1.25;;
24567;SDS011;12731;52.182;8.716;2022-12-29T10:27:58;5.00;;;1.40;;
24567;SDS011;12731;52.182;8.716;2022-12-29T10:30:26;4.30;;;1.10;;
24567;SDS011;12731;52.182;8.716;2022-12-29T10:33:00;4.70;;;1.55;;
24567;SDS011;12731;52.182;8.716;2022-12-29T10:35:38;4.68;;;1.40;;
24567;SDS011;12731;52.182;8.716;2022-12-29T10:38:22;5.18;;;1.45;;
24567;SDS011;12731;52.182;8.716;2022-12-29T10:43:27;5.72;;;1.65;;
24567;SDS011;12731;52.182;8.716;2022-12-29T10:46:04;7.22;;;1.58;;
24567;SDS011;12731;52.182;8.716;2022-12-29T10:51:04;5.63;;;1.50;;
24567;SDS011;12731;52.182;8.716;2022-12-29T10:53:36;7.03;;;1.95;;
24567;SDS011;12731;52.182;8.716;2022-12-29T10:56:15;3.50;;;1.40;;
24567;SDS011;12731;52.182;8.716;2022-12-29T10:58:54;4.35;;;1.65;;
24567;SDS011;12731;52.182;8.716;2022-12-29T11:01:24;6.65;;;1.70;;
24567;SDS011;12731;52.182;8.716;2022-12-29T11:04:39;7.18;;;1.48;;
24567;SDS011;12731;52.182;8.716;2022-12-29T11:06:49;3.92;;;1.55;;
24567;SDS011;12731;52.182;8.716;2022-12-29T11:09:16;6.93;;;1.30;;
24567;SDS011;12731;52.182;8.716;2022-12-29T11:12:26;6.13;;;1.67;;
24567;SDS011;12731;52.182;8.716;2022-12-29T11:17:35;4.75;;;1.25;;
24567;SDS011;12731;52.182;8.716;2022-12-29T11:23:05;5.43;;;1.30;;
24567;SDS011;12731;52.182;8.716;2022-12-29T11:25:59;7.07;;;1.40;;
24567;SDS011;12731;52.182;8.716;2022-12-29T11:28:37;7.50;;;1.73;;
24567;SDS011;12731;52.182;8.716;2022-12-29T11:31:04;4.82;;;1.38;;
24567;SDS011;12731;52.182;8.716;2022-12-29T11:33:33;7.32;;;1.60;;
24567;SDS011;12731;52.182;8.716;2022-12-29T11:38:42;7.78;;;1.77;;
24567;SDS011;12731;52.182;8.716;2022-12-29T11:41:13;4.43;;;1.42;;
24567;SDS011;12731;52.182;8.716;2022-12-29T11:43:48;6.70;;;1.50;;
24567;SDS011;12731;52.182;8.716;2022-12-29T11:46:17;7.65;;;1.67;;
24567;SDS011;12731;52.182;8.716;2022-12-29T11:48:46;5.97;;;1.38;;
24567;SDS011;12731;52.182;8.716;2022-12-29T11:51:20;4.20;;;1.52;;
24567;SDS011;12731;52.182;8.716;2022-12-29T11:53:51;5.95;;;1.42;;
24567;SDS011;12731;52.182;8.716;2022-12-29T11:56:58;4.78;;;1.15;;
24567;SDS011;12731;52.182;8.716;2022-12-29T11:59:25;7.40;;;1.40;;
24567;SDS011;12731;52.182;8.716;2022-12-29T12:05:28;5.20;;;1.20;;
24567;SDS011;12731;52.182;8.716;2022-12-29T12:08:02;6.68;;;2.10;;
24567;SDS011;12731;52.182;8.716;2022-12-29T12:13:35;4.80;;;1.13;;
24567;SDS011;12731;52.182;8.716;2022-12-29T12:16:09;6.03;;;1.55;;
24567;SDS011;12731;52.182;8.716;2022-12-29T12:18:40;6.18;;;1.60;;
24567;SDS011;12731;52.182;8.716;2022-12-29T12:21:25;3.33;;;1.10;;
24567;SDS011;12731;52.182;8.716;2022-12-29T12:26:55;6.57;;;1.63;;
24567;SDS011;12731;52.182;8.716;2022-12-29T12:29:28;3.80;;;1.30;;
24567;SDS011;12731;52.182;8.716;2022-12-29T12:32:04;7.43;;;1.65;;
24567;SDS011;12731;52.182;8.716;2022-12-29T12:34:37;4.00;;;1.35;;
24567;SDS011;12731;52.182;8.716;2022-12-29T12:40:07;7.28;;;1.40;;
24567;SDS011;12731;52.182;8.716;2022-12-29T12:45:22;4.90;;;1.38;;
24567;SDS011;12731;52.182;8.716;2022-12-29T12:54:16;7.15;;;1.60;;
24567;SDS011;12731;52.182;8.716;2022-12-29T13:02:18;4.30;;;1.45;;
24567;SDS011;12731;52.182;8.716;2022-12-29T13:05:09;6.72;;;1.60;;
24567;SDS011;12731;52.182;8.716;2022-12-29T13:22:18;5.60;;;1.60;;
24567;SDS011;12731;52.182;8.716;2022-12-29T13:30:04;5.32;;;1.70;;
24567;SDS011;12731;52.182;8.716;2022-12-29T13:37:55;7.15;;;1.65;;
24567;SDS011;12731;52.182;8.716;2022-12-29T13:40:26;8.10;;;1.83;;
24567;SDS011;12731;52.182;8.716;2022-12-29T13:42:55;6.30;;;1.35;;
24567;SDS011;12731;52.182;8.716;2022-12-29T13:45:22;4.82;;;1.45;;
24567;SDS011;12731;52.182;8.716;2022-12-29T13:47:53;6.90;;;1.45;;
24567;SDS011;12731;52.182;8.716;2022-12-29T13:50:23;5.82;;;1.90;;
24567;SDS011;12731;52.182;8.716;2022-12-29T13:53:13;9.52;;;1.77;;
24567;SDS011;12731;52.182;8.716;2022-12-29T13:55:51;6.38;;;1.90;;
24567;SDS011;12731;52.182;8.716;2022-12-29T13:58:27;6.65;;;2.17;;
24567;SDS011;12731;52.182;8.716;2022-12-29T14:01:08;7.72;;;1.63;;
24567;SDS011;12731;52.182;8.716;2022-12-29T14:09:02;4.97;;;1.40;;
24567;SDS011;12731;52.182;8.716;2022-12-29T14:11:38;7.57;;;1.63;;
24567;SDS011;12731;52.182;8.716;2022-12-29T14:14:19;5.90;;;1.58;;
24567;SDS011;12731;52.182;8.716;2022-12-29T14:16:48;8.27;;;1.67;;
24567;SDS011;12731;52.182;8.716;2022-12-29T14:19:15;6.82;;;1.60;;
24567;SDS011;12731;52.182;8.716;2022-12-29T14:21:57;6.65;;;1.35;;
24567;SDS011;12731;52.182;8.716;2022-12-29T14:34:47;9.57;;;2.50;;
24567;SDS011;12731;52.182;8.716;2022-12-29T14:37:25;7.65;;;1.75;;
24567;SDS011;12731;52.182;8.716;2022-12-29T14:40:05;8.93;;;1.92;;
24567;SDS011;12731;52.182;8.716;2022-12-29T14:42:34;6.40;;;1.48;;
24567;SDS011;12731;52.182;8.716;2022-12-29T14:45:02;4.53;;;1.73;;
24567;SDS011;12731;52.182;8.716;2022-12-29T14:47:37;9.80;;;1.73;;
24567;SDS011;12731;52.182;8.716;2022-12-29T14:52:50;7.85;;;1.85;;
24567;SDS011;12731;52.182;8.716;2022-12-29T14:58:05;6.45;;;1.77;;
24567;SDS011;12731;52.182;8.716;2022-12-29T15:00:39;8.32;;;2.15;;
24567;SDS011;12731;52.182;8.716;2022-12-29T15:03:06;8.63;;;1.90;;
24567;SDS011;12731;52.182;8.716;2022-12-29T15:05:43;6.40;;;1.70;;
24567;SDS011;12731;52.182;8.716;2022-12-29T15:08:12;10.77;;;2.05;;
24567;SDS011;12731;52.182;8.716;2022-12-29T15:10:45;5.97;;;1.80;;
24567;SDS011;12731;52.182;8.716;2022-12-29T15:13:21;8.98;;;2.10;;
24567;SDS011;12731;52.182;8.716;2022-12-29T15:15:51;11.60;;;2.30;;
24567;SDS011;12731;52.182;8.716;2022-12-29T15:18:25;5.68;;;1.40;;
24567;SDS011;12731;52.182;8.716;2022-12-29T15:20:54;6.78;;;2.45;;
24567;SDS011;12731;52.182;8.716;2022-12-29T15:23:23;10.60;;;2.63;;
24567;SDS011;12731;52.182;8.716;2022-12-29T15:25:52;7.55;;;1.98;;
24567;SDS011;12731;52.182;8.716;2022-12-29T15:28:23;8.57;;;2.22;;
24567;SDS011;12731;52.182;8.716;2022-12-29T15:30:51;10.13;;;2.60;;
24567;SDS011;12731;52.182;8.716;2022-12-29T15:33:22;3.97;;;1.95;;
24567;SDS011;12731;52.182;8.716;2022-12-29T15:35:50;11.27;;;2.75;;
24567;SDS011;12731;52.182;8.716;2022-12-29T15:38:27;8.18;;;2.40;;
24567;SDS011;12731;52.182;8.716;2022-12-29T15:41:04;7.95;;;2.17;;
24567;SDS011;12731;52.182;8.716;2022-12-29T15:46:12;8.93;;;2.20;;
24567;SDS011;12731;52.182;8.716;2022-12-29T15:48:38;10.55;;;2.30;;
24567;SDS011;12731;52.182;8.716;2022-12-29T15:51:16;7.85;;;2.00;;
24567;SDS011;12731;52.182;8.716;2022-12-29T15:53:46;8.38;;;2.15;;
24567;SDS011;12731;52.182;8.716;2022-12-29T15:56:13;8.43;;;1.80;;
24567;SDS011;12731;52.182;8.716;2022-12-29T15:58:44;10.13;;;3.10;;
24567;SDS011;12731;52.182;8.716;2022-12-29T16:01:32;9.50;;;2.33;;
24567;SDS011;12731;52.182;8.716;2022-12-29T16:04:01;7.43;;;1.48;;
24567;SDS011;12731;52.182;8.716;2022-12-29T16:09:15;6.72;;;1.83;;
24567;SDS011;12731;52.182;8.716;2022-12-29T16:12:26;5.40;;;1.80;;
24567;SDS011;12731;52.182;8.716;2022-12-29T16:14:37;10.95;;;2.50;;
24567;SDS011;12731;52.182;8.716;2022-12-29T16:17:24;4.93;;;1.63;;
24567;SDS011;12731;52.182;8.716;2022-12-29T16:20:06;7.72;;;2.00;;
24567;SDS011;12731;52.182;8.716;2022-12-29T16:22:40;7.63;;;1.90;;
24567;SDS011;12731;52.182;8.716;2022-12-29T16:25:15;8.60;;;2.05;;
24567;SDS011;12731;52.182;8.716;2022-12-29T16:27:45;5.95;;;1.90;;
24567;SDS011;12731;52.182;8.716;2022-12-29T16:30:25;9.25;;;2.17;;
24567;SDS011;12731;52.182;8.716;2022-12-29T16:33:00;5.57;;;2.22;;
24567;SDS011;12731;52.182;8.716;2022-12-29T16:38:13;7.28;;;2.47;;
24567;SDS011;12731;52.182;8.716;2022-12-29T16:43:20;10.82;;;3.88;;
24567;SDS011;12731;52.182;8.716;2022-12-29T16:48:18;7.93;;;2.50;;
24567;SDS011;12731;52.182;8.716;2022-12-29T16:50:46;8.13;;;2.33;;
24567;SDS011;12731;52.182;8.716;2022-12-29T16:53:21;8.85;;;2.50;;
24567;SDS011;12731;52.182;8.716;2022-12-29T16:55:54;8.93;;;2.45;;
24567;SDS011;12731;52.182;8.716;2022-12-29T16:58:24;7.95;;;2.00;;
24567;SDS011;12731;52.182;8.716;2022-12-29T17:00:56;6.18;;;2.10;;
24567;SDS011;12731;52.182;8.716;2022-12-29T17:03:29;8.82;;;2.40;;
24567;SDS011;12731;52.182;8.716;2022-12-29T17:06:02;11.23;;;2.63;;
24567;SDS011;12731;52.182;8.716;2022-12-29T17:08:28;8.45;;;2.10;;
24567;SDS011;12731;52.182;8.716;2022-12-29T17:10:55;6.57;;;2.28;;
24567;SDS011;12731;52.182;8.716;2022-12-29T17:13:41;11.85;;;2.60;;
24567;SDS011;12731;52.182;8.716;2022-12-29T17:16:08;12.00;;;2.53;;
24567;SDS011;12731;52.182;8.716;2022-12-29T17:18:36;5.15;;;1.92;;
24567;SDS011;12731;52.182;8.716;2022-12-29T17:21:03;8.20;;;1.77;;
24567;SDS011;12731;52.182;8.716;2022-12-29T17:23:29;5.20;;;2.05;;
24567;SDS011;12731;52.182;8.716;2022-12-29T17:25:57;6.25;;;1.70;;
24567;SDS011;12731;52.182;8.716;2022-12-29T17:28:24;6.45;;;1.60;;